createdAt,value
2018-03-31T00:01:45.577Z,1.95
2018-03-31T00:04:14.369Z,1.60
2018-03-31T00:06:43.117Z,2.00
2018-03-31T00:09:11.587Z,1.73
2018-03-31T00:11:40.354Z,1.75
2018-03-31T00:14:09.188Z,1.70
2018-03-31T00:16:38.002Z,1.85
2018-03-31T00:19:06.495Z,2.00
2018-03-31T00:21:35.394Z,1.67
2018-03-31T00:24:04.472Z,1.80
2018-03-31T00:26:32.988Z,1.92
2018-03-31T00:29:01.767Z,1.90
2018-03-31T00:31:30.554Z,2.03
2018-03-31T00:33:59.343Z,2.00
2018-03-31T00:36:28.318Z,2.00
2018-03-31T00:38:56.806Z,1.85
2018-03-31T00:41:25.556Z,1.87
2018-03-31T00:43:54.308Z,1.50
2018-03-31T00:46:23.060Z,2.08
2018-03-31T00:48:51.836Z,2.62
2018-03-31T00:51:20.767Z,1.90
2018-03-31T00:53:49.548Z,1.70
2018-03-31T00:56:18.593Z,1.50
2018-03-31T00:58:47.398Z,2.25
2018-03-31T01:01:15.882Z,2.00
2018-03-31T01:03:44.699Z,1.85
2018-03-31T01:06:13.448Z,2.20
2018-03-31T01:08:42.230Z,1.90
2018-03-31T01:11:11.481Z,1.77
2018-03-31T01:13:40.280Z,2.12
2018-03-31T01:16:09.036Z,2.40
2018-03-31T01:18:37.852Z,1.75
2018-03-31T01:21:06.651Z,1.75
2018-03-31T01:23:35.517Z,2.28
2018-03-31T01:26:04.331Z,1.77
2018-03-31T01:28:33.127Z,1.70
2018-03-31T01:31:01.869Z,1.60
2018-03-31T01:33:30.637Z,1.85
2018-03-31T01:35:59.383Z,1.77
2018-03-31T01:38:27.860Z,1.70
2018-03-31T01:40:56.620Z,2.05
2018-03-31T01:43:25.369Z,1.80
2018-03-31T01:45:53.924Z,1.75
2018-03-31T01:48:22.666Z,2.03
2018-03-31T01:50:51.461Z,1.80
2018-03-31T01:53:20.312Z,1.90
2018-03-31T01:55:48.791Z,1.98
2018-03-31T01:58:17.555Z,2.00
2018-03-31T02:00:46.362Z,2.08
2018-03-31T02:03:15.151Z,1.80
2018-03-31T02:05:43.877Z,1.90
2018-03-31T02:08:12.402Z,2.00
2018-03-31T02:10:41.335Z,2.00
2018-03-31T02:13:09.836Z,2.00
2018-03-31T02:15:38.588Z,1.62
2018-03-31T02:18:07.343Z,1.95
2018-03-31T02:20:36.121Z,2.00
2018-03-31T02:23:04.895Z,2.00
2018-03-31T02:25:33.444Z,1.73
2018-03-31T02:28:02.210Z,1.60
2018-03-31T02:30:31.005Z,2.03
2018-03-31T02:32:59.811Z,1.50
2018-03-31T02:35:28.605Z,1.85
2018-03-31T02:37:57.338Z,1.83
2018-03-31T02:40:26.091Z,2.42
2018-03-31T02:42:54.878Z,2.60
2018-03-31T02:45:23.631Z,2.35
2018-03-31T02:47:52.411Z,2.47
2018-03-31T02:50:21.153Z,3.10
2018-03-31T02:52:50.077Z,2.95
2018-03-31T02:55:18.461Z,2.92
2018-03-31T02:57:47.284Z,3.60
2018-03-31T03:00:16.034Z,3.40
2018-03-31T03:02:44.590Z,4.40
2018-03-31T03:05:13.060Z,3.80
2018-03-31T03:07:41.846Z,4.07
2018-03-31T03:10:10.664Z,4.10
2018-03-31T03:12:39.430Z,3.85
2018-03-31T03:15:07.943Z,4.00
2018-03-31T03:17:36.733Z,4.28
2018-03-31T03:20:04.992Z,4.78
2018-03-31T03:22:33.179Z,4.47
2018-03-31T03:25:01.425Z,4.97
2018-03-31T03:27:29.610Z,5.07
2018-03-31T03:29:57.805Z,5.05
2018-03-31T03:32:25.981Z,6.15
2018-03-31T03:34:54.234Z,6.60
2018-03-31T03:37:22.458Z,6.75
2018-03-31T03:39:50.711Z,6.70
2018-03-31T03:42:18.999Z,6.90
2018-03-31T03:44:47.218Z,7.90
2018-03-31T03:47:15.452Z,7.45
2018-03-31T03:49:43.664Z,7.30
2018-03-31T03:52:11.892Z,8.20
2018-03-31T03:54:40.115Z,7.95
2018-03-31T03:57:08.321Z,9.00
2018-03-31T03:59:36.583Z,8.82
2018-03-31T04:02:04.796Z,8.02
2018-03-31T04:04:33.043Z,8.40
2018-03-31T04:07:01.024Z,8.70
2018-03-31T04:09:29.035Z,8.27
2018-03-31T04:11:57.246Z,9.90
2018-03-31T04:14:25.473Z,8.73
2018-03-31T04:16:53.749Z,8.90
2018-03-31T04:19:22.116Z,9.40
2018-03-31T04:21:50.330Z,9.85
2018-03-31T04:24:18.567Z,9.13
2018-03-31T04:26:46.758Z,10.05
2018-03-31T04:29:14.977Z,9.40
2018-03-31T04:31:44.030Z,9.32
2018-03-31T04:34:12.267Z,10.52
2018-03-31T04:36:40.463Z,9.68
2018-03-31T04:39:08.752Z,10.73
2018-03-31T04:41:37.014Z,10.88
2018-03-31T04:44:05.598Z,10.80
2018-03-31T04:46:33.903Z,11.93
2018-03-31T04:49:02.121Z,12.80
2018-03-31T04:51:30.134Z,11.90
2018-03-31T04:53:58.086Z,12.20
2018-03-31T04:56:26.458Z,12.40
2018-03-31T04:58:54.799Z,12.25
2018-03-31T05:01:23.037Z,10.95
2018-03-31T05:03:52.136Z,12.35
2018-03-31T05:06:20.298Z,12.30
2018-03-31T05:08:48.309Z,11.40
2018-03-31T05:11:16.799Z,10.55
2018-03-31T05:13:44.781Z,11.75
2018-03-31T11:51:14.458Z,1.87
2018-03-31T11:53:42.423Z,1.80
2018-03-31T11:56:10.440Z,2.10
2018-03-31T11:58:38.340Z,2.30
2018-03-31T12:01:06.057Z,2.43
2018-03-31T12:03:34.020Z,2.20
2018-03-31T12:06:01.917Z,2.13
2018-03-31T12:08:29.844Z,2.07
2018-03-31T12:10:57.725Z,1.90
2018-03-31T12:13:25.610Z,2.30
2018-03-31T12:15:53.533Z,2.07
2018-03-31T12:18:21.408Z,1.93
2018-03-31T12:20:49.304Z,1.70
2018-03-31T12:23:17.197Z,2.03
2018-03-31T12:25:45.138Z,1.73
2018-03-31T12:28:13.021Z,1.80
2018-03-31T12:30:40.935Z,2.07
2018-03-31T12:33:08.965Z,2.23
2018-03-31T12:35:36.851Z,1.67
2018-03-31T12:38:04.748Z,1.63
2018-03-31T12:40:33.971Z,1.83
2018-03-31T12:43:01.969Z,2.00
2018-03-31T12:45:29.912Z,1.40
2018-03-31T12:47:57.795Z,1.30
2018-03-31T12:50:25.689Z,1.40
2018-03-31T12:52:53.578Z,1.27
2018-03-31T12:55:21.519Z,1.00
2018-03-31T12:57:49.420Z,1.70
2018-03-31T13:00:17.332Z,1.37
2018-03-31T13:02:45.248Z,1.13
2018-03-31T13:05:13.132Z,1.00
2018-03-31T13:07:41.047Z,3.20
2018-03-31T13:10:08.947Z,1.00
2018-03-31T13:12:36.827Z,1.00
2018-03-31T13:15:04.534Z,0.90
2018-03-31T13:17:32.444Z,1.20
2018-03-31T13:20:00.332Z,1.10
2018-03-31T13:22:28.283Z,1.00
2018-03-31T13:24:56.160Z,0.97
2018-03-31T13:27:24.156Z,1.40
2018-03-31T13:29:52.033Z,0.90
2018-03-31T13:32:19.952Z,0.93
2018-03-31T13:34:47.868Z,1.03
2018-03-31T13:37:15.836Z,1.27
2018-03-31T13:39:43.741Z,2.00
2018-03-31T13:42:11.501Z,8.50
2018-03-31T13:44:39.419Z,8.10
2018-03-31T13:47:07.567Z,8.20
2018-03-31T13:49:35.449Z,8.00
2018-03-31T13:52:03.367Z,7.60
2018-03-31T13:54:31.248Z,8.47
2018-03-31T13:56:59.248Z,8.50
2018-03-31T13:59:27.148Z,8.63
2018-03-31T14:01:55.037Z,6.87
2018-03-31T14:04:22.960Z,7.90
2018-03-31T14:06:50.859Z,7.70
2018-03-31T14:09:18.748Z,7.00
2018-03-31T14:11:46.461Z,8.20
2018-03-31T14:14:14.354Z,8.17
2018-03-31T14:16:42.253Z,7.03
2018-03-31T14:19:10.143Z,7.20
2018-03-31T14:21:38.027Z,6.43
2018-03-31T14:24:05.947Z,6.13
2018-03-31T14:26:33.835Z,6.13
2018-03-31T14:29:01.832Z,6.60
2018-03-31T14:31:29.769Z,7.33
2018-03-31T14:33:57.678Z,7.10
2018-03-31T14:36:25.566Z,7.13
2018-03-31T14:38:53.484Z,6.70
2018-03-31T14:41:21.375Z,6.37
2018-03-31T14:43:49.290Z,6.90
2018-03-31T14:46:17.213Z,7.50
2018-03-31T14:48:45.105Z,6.07
2018-03-31T14:51:13.119Z,5.93
2018-03-31T14:53:41.053Z,6.03
2018-03-31T14:56:08.956Z,6.47
2018-03-31T14:58:36.940Z,6.77
2018-03-31T15:01:04.750Z,6.93
2018-03-31T15:03:32.746Z,7.37
2018-03-31T15:06:00.639Z,7.53
2018-03-31T15:08:28.526Z,6.90
2018-03-31T15:10:56.428Z,7.00
2018-03-31T15:13:24.339Z,6.53
2018-03-31T15:15:52.219Z,7.67
2018-03-31T15:18:20.122Z,6.40
2018-03-31T15:20:48.048Z,6.37
2018-03-31T15:23:15.956Z,7.13
2018-03-31T15:28:18.041Z,7.00
2018-03-31T15:30:45.972Z,7.90
2018-03-31T15:33:13.852Z,6.70
2018-03-31T15:35:41.755Z,7.00
2018-03-31T15:38:09.830Z,8.40
2018-03-31T15:40:37.736Z,8.27
2018-03-31T15:43:05.661Z,7.30
2018-03-31T15:45:33.544Z,9.07
2018-03-31T15:48:01.548Z,8.73
2018-03-31T15:50:29.433Z,8.53
2018-03-31T15:52:57.326Z,8.77
2018-03-31T15:55:25.307Z,8.37
2018-03-31T15:57:53.203Z,8.97
2018-03-31T16:00:21.096Z,8.60
2018-03-31T16:02:49.014Z,8.67
2018-03-31T16:05:16.908Z,10.00
2018-03-31T16:07:44.798Z,9.00
2018-03-31T16:10:12.720Z,10.23
2018-03-31T16:12:40.630Z,10.73
2018-03-31T16:15:08.508Z,10.07
2018-03-31T16:17:36.424Z,11.27
2018-03-31T16:20:04.804Z,11.10
2018-03-31T16:22:32.721Z,11.23
2018-03-31T16:25:00.636Z,12.20
2018-03-31T16:27:28.527Z,10.90
2018-03-31T16:29:56.457Z,12.33
2018-03-31T16:32:24.453Z,11.90
2018-03-31T16:34:52.356Z,11.47
2018-03-31T16:37:20.597Z,11.82
2018-03-31T16:39:48.814Z,11.82
2018-03-31T16:42:17.012Z,12.23
2018-03-31T16:44:45.279Z,11.85
2018-03-31T16:47:13.481Z,10.82
2018-03-31T16:49:41.720Z,11.05
2018-03-31T16:52:10.020Z,11.15
2018-03-31T16:54:38.208Z,9.93
2018-03-31T16:57:06.432Z,9.73
2018-03-31T16:59:34.675Z,9.60
2018-03-31T17:02:02.857Z,8.52
2018-03-31T17:04:31.055Z,8.25
2018-03-31T17:06:59.243Z,7.95
2018-03-31T17:09:27.425Z,8.20
2018-03-31T17:11:55.654Z,7.70
2018-03-31T17:14:23.856Z,8.48
2018-03-31T17:16:52.016Z,7.60
2018-03-31T17:19:20.208Z,7.62
2018-03-31T17:21:48.525Z,8.38
2018-03-31T17:24:16.704Z,7.93
2018-03-31T17:26:44.891Z,8.32
2018-03-31T17:29:13.068Z,7.10
2018-03-31T17:31:41.322Z,7.12
2018-03-31T17:34:09.500Z,8.15
2018-03-31T17:36:37.801Z,6.50
2018-03-31T17:39:06.154Z,6.05
2018-03-31T17:41:34.628Z,7.25
2018-03-31T17:44:02.899Z,6.53
2018-03-31T17:46:31.080Z,7.05
2018-03-31T17:48:59.269Z,6.75
2018-03-31T17:51:27.451Z,5.45
2018-03-31T17:53:55.657Z,5.95
2018-03-31T17:56:23.850Z,5.97
2018-03-31T17:58:52.068Z,6.35
2018-03-31T18:01:20.251Z,6.03
2018-03-31T18:03:48.404Z,6.53
2018-03-31T18:06:16.595Z,5.60
2018-03-31T18:08:44.780Z,6.90
2018-03-31T18:11:12.956Z,5.65
2018-03-31T18:13:41.159Z,6.32
2018-03-31T18:16:09.519Z,6.12
2018-03-31T18:18:37.732Z,5.60
2018-03-31T18:21:05.936Z,5.50
2018-03-31T18:23:34.128Z,6.32
2018-03-31T18:26:02.349Z,6.10
2018-03-31T18:28:30.600Z,5.25
2018-03-31T18:30:58.931Z,6.62
2018-03-31T18:33:27.132Z,6.35
2018-03-31T18:35:55.365Z,6.40
2018-03-31T18:38:23.615Z,7.07
2018-03-31T18:40:51.923Z,7.60
2018-03-31T18:43:20.208Z,6.43
2018-03-31T18:45:48.371Z,7.60
2018-03-31T18:48:16.565Z,8.15
2018-03-31T18:50:44.844Z,8.00
2018-03-31T18:53:13.089Z,7.80
2018-03-31T18:55:41.303Z,8.30
2018-03-31T18:58:09.492Z,7.30
2018-03-31T19:00:37.715Z,8.73
2018-03-31T19:03:05.988Z,7.78
2018-03-31T19:05:34.191Z,9.00
2018-03-31T19:08:02.370Z,8.00
2018-03-31T19:10:30.540Z,8.60
2018-03-31T19:12:58.740Z,8.90
2018-03-31T19:15:26.924Z,8.70
2018-03-31T19:17:55.123Z,10.20
2018-03-31T19:20:23.312Z,9.27
2018-03-31T19:22:51.503Z,9.75
2018-03-31T19:25:25.126Z,9.32
2018-03-31T19:27:53.328Z,9.38
2018-03-31T19:30:21.319Z,10.05
2018-03-31T19:32:49.511Z,10.95
2018-03-31T19:35:17.714Z,11.02
2018-03-31T19:37:45.901Z,10.95
2018-03-31T19:40:14.112Z,10.30
2018-03-31T19:42:42.311Z,11.27
2018-03-31T19:45:10.571Z,9.50
2018-03-31T19:47:38.927Z,10.10
2018-03-31T19:50:07.115Z,10.38
2018-03-31T19:52:35.312Z,11.07
2018-03-31T19:55:03.704Z,10.43
2018-03-31T19:57:31.888Z,9.65
2018-03-31T20:00:00.076Z,10.93
2018-03-31T20:02:28.260Z,9.70
2018-03-31T20:04:56.478Z,9.63
2018-03-31T20:07:24.656Z,10.75
2018-03-31T20:09:52.841Z,10.40
2018-03-31T20:12:21.047Z,9.85
2018-03-31T20:14:49.232Z,10.75
2018-03-31T20:17:17.421Z,10.57
2018-03-31T20:19:45.383Z,9.68
2018-03-31T20:22:13.558Z,8.05
2018-03-31T20:24:41.787Z,8.02
2018-03-31T20:27:09.988Z,7.45
2018-03-31T20:29:38.188Z,7.50
2018-03-31T20:32:06.348Z,6.70
2018-03-31T20:34:34.307Z,5.57
2018-03-31T20:37:02.471Z,5.85
2018-03-31T20:39:30.688Z,5.20
2018-03-31T20:41:58.860Z,5.50
2018-03-31T20:44:27.053Z,6.10
2018-03-31T20:46:55.252Z,5.80
2018-03-31T20:49:23.424Z,5.50
2018-03-31T20:51:51.604Z,6.95
2018-03-31T20:54:19.776Z,6.72
2018-03-31T20:56:47.951Z,7.12
2018-03-31T20:59:16.121Z,7.68
2018-03-31T21:01:44.370Z,7.50
2018-03-31T21:04:12.532Z,7.68
2018-03-31T21:06:40.813Z,6.97
2018-03-31T21:09:08.984Z,6.95
2018-03-31T21:11:37.135Z,7.10
2018-03-31T21:14:05.312Z,6.57
2018-03-31T21:16:33.484Z,6.40
2018-03-31T21:19:01.659Z,7.45
2018-03-31T21:21:29.832Z,7.93
2018-03-31T21:23:58.004Z,6.40
2018-03-31T21:26:26.260Z,6.85
2018-03-31T21:28:54.512Z,7.00
2018-03-31T21:31:22.787Z,6.87
2018-03-31T21:33:50.968Z,7.50
2018-03-31T21:36:19.147Z,7.03
2018-03-31T21:38:47.304Z,7.03
2018-03-31T21:41:15.480Z,6.18
2018-03-31T21:43:43.751Z,6.53
2018-03-31T21:46:11.916Z,6.90
2018-03-31T21:48:40.140Z,7.18
2018-03-31T21:51:08.100Z,7.35
2018-03-31T21:53:36.280Z,7.28
2018-03-31T21:56:04.452Z,6.97
2018-03-31T21:58:32.620Z,6.72
2018-03-31T22:01:00.828Z,7.45
2018-03-31T22:03:29.115Z,7.78
2018-03-31T22:05:57.291Z,7.80
2018-03-31T22:08:25.668Z,6.90
2018-03-31T22:10:53.882Z,7.93
2018-03-31T22:13:27.671Z,8.55
2018-03-31T22:15:55.869Z,8.48
2018-03-31T22:18:24.042Z,9.05
2018-03-31T22:20:52.225Z,9.75
2018-03-31T22:23:20.959Z,9.40
2018-03-31T22:25:49.176Z,9.30
2018-03-31T22:28:17.413Z,10.63
2018-03-31T22:30:45.589Z,10.25
2018-03-31T22:33:13.911Z,11.23
2018-03-31T22:35:42.099Z,10.90
2018-03-31T22:38:10.376Z,12.73
2018-03-31T22:40:38.555Z,11.70
2018-03-31T22:43:06.759Z,11.45
2018-03-31T22:45:34.968Z,11.30
2018-03-31T22:48:03.147Z,11.80
2018-03-31T22:50:31.359Z,10.73
2018-03-31T22:52:59.553Z,11.88
2018-03-31T22:55:27.768Z,11.98
2018-03-31T22:57:56.059Z,11.63
2018-03-31T23:00:24.257Z,11.98
2018-03-31T23:02:52.528Z,10.13
2018-03-31T23:05:21.460Z,9.32
2018-03-31T23:07:50.220Z,11.15
2018-03-31T23:10:18.954Z,9.57
2018-03-31T23:12:47.756Z,10.15
2018-03-31T23:15:16.504Z,9.50
2018-03-31T23:17:45.257Z,9.93
2018-03-31T23:20:13.800Z,9.60
2018-03-31T23:22:43.029Z,10.05
2018-03-31T23:25:11.752Z,9.65
2018-03-31T23:27:40.516Z,11.35
2018-03-31T23:30:09.276Z,10.60
2018-03-31T23:32:38.013Z,10.85
2018-03-31T23:35:06.748Z,11.60
2018-03-31T23:37:35.496Z,10.50
2018-03-31T23:40:03.886Z,9.90
2018-03-31T23:42:32.063Z,11.40
2018-03-31T23:45:00.116Z,10.38
2018-03-31T23:47:28.080Z,10.43
2018-03-31T23:49:56.332Z,10.40
2018-03-31T23:52:24.520Z,10.77
2018-03-31T23:54:52.912Z,10.63
2018-03-31T23:57:21.102Z,11.57
2018-03-31T23:59:49.483Z,12.32
